Time;durP1;ratioP1;P1;durP2;ratioP2;P2;SDS_P1;SDS_P2;PMS_P1;PMS_P2;Temp;Humidity;BMP_temperature;BMP_pressure;BME280_temperature;BME280_humidity;BME280_pressure;Samples;Min_cycle;Max_cycle;Signal;HPM_P1;HPM_P2
2023/03/13 00:00:51;;;;;;;1.90;1.63;;;;;;;2.63;56.93;101774.38;4972103;28;20034;-85
2023/03/13 00:03:17;;;;;;;1.42;1.20;;;;;;;2.71;56.96;101771.84;4972389;28;20027;-85
2023/03/13 00:05:42;;;;;;;1.20;1.10;;;;;;;2.79;56.98;101796.56;4972356;28;20030;-86
2023/03/13 00:08:08;;;;;;;0.68;0.68;;;;;;;2.77;57.27;101787.19;4940170;28;20472;-85
2023/03/13 00:10:36;;;;;;;1.17;1.08;;;;;;;2.85;56.95;101809.38;4972124;28;20027;-86
2023/03/13 00:13:01;;;;;;;0.85;0.82;;;;;;;2.72;57.58;101794.00;4972165;28;20408;-87
2023/03/13 00:15:27;;;;;;;2.63;1.65;;;;;;;2.70;57.70;101795.69;4955935;28;20042;-85
2023/03/13 00:17:52;;;;;;;1.55;1.27;;;;;;;2.74;58.15;101805.91;4972051;28;20026;-86
2023/03/13 00:20:18;;;;;;;2.03;1.52;;;;;;;2.77;58.03;101802.53;4972897;28;20030;-86
2023/03/13 00:22:43;;;;;;;1.65;1.42;;;;;;;2.78;57.81;101801.69;4955808;28;20031;-86
2023/03/13 00:25:09;;;;;;;1.10;1.00;;;;;;;2.78;57.61;101788.91;4955684;28;20027;-86
2023/03/13 00:27:34;;;;;;;1.92;1.73;;;;;;;2.95;57.42;101802.56;4971550;28;20085;-86
2023/03/13 00:30:00;;;;;;;2.85;1.50;;;;;;;3.00;57.60;101812.78;4971714;28;20430;-85
2023/03/13 00:32:25;;;;;;;1.00;0.88;;;;;;;2.97;57.53;101816.19;4955550;28;20122;-87
2023/03/13 00:34:51;;;;;;;2.15;1.65;;;;;;;2.95;57.63;101811.91;4971756;28;20027;-86
2023/03/13 00:37:16;;;;;;;2.05;1.85;;;;;;;2.82;57.13;101799.13;4971709;28;20432;-86
2023/03/13 00:39:42;;;;;;;0.90;0.90;;;;;;;2.90;57.67;101817.03;4955474;28;20028;-86
2023/03/13 00:42:07;;;;;;;4.07;1.23;;;;;;;2.86;57.83;101812.78;4971615;28;20030;-86
2023/03/13 00:44:32;;;;;;;2.17;1.25;;;;;;;2.82;57.20;101790.59;4955212;28;20480;-86
2023/03/13 00:46:58;;;;;;;1.80;1.70;;;;;;;2.72;57.64;101794.00;4955311;28;20121;-86
2023/03/13 00:49:23;;;;;;;2.33;1.50;;;;;;;2.74;57.80;101803.34;4955246;28;20030;-86
2023/03/13 00:51:49;;;;;;;2.70;1.55;;;;;;;2.76;57.63;101803.38;4971221;28;20081;-86
2023/03/13 00:54:14;;;;;;;1.67;0.82;;;;;;;2.69;57.15;101786.31;4971367;28;20035;-86
2023/03/13 00:56:40;;;;;;;2.00;1.75;;;;;;;2.45;57.63;101764.97;4971136;28;20105;-86
2023/03/13 00:59:05;;;;;;;3.15;1.73;;;;;;;2.32;57.78;101755.56;4971188;28;20404;-85
2023/03/13 01:01:32;;;;;;;1.05;0.93;;;;;;;2.43;57.17;101764.09;4955194;28;20035;-86
2023/03/13 01:03:59;;;;;;;0.90;0.80;;;;;;;2.50;57.92;101787.97;4971341;28;20118;-85
2023/03/13 01:06:26;;;;;;;1.25;1.08;;;;;;;2.46;57.34;101799.91;4971336;28;20031;-86
2023/03/13 01:08:52;;;;;;;1.05;0.90;;;;;;;2.38;57.94;101793.91;4971273;28;20153;-86
2023/03/13 01:11:22;;;;;;;2.15;1.50;;;;;;;2.17;57.91;101766.59;4970405;28;20113;-85
2023/03/13 01:13:48;;;;;;;1.25;1.05;;;;;;;2.40;57.99;101802.41;4954880;28;20038;-86
2023/03/13 01:16:17;;;;;;;0.88;0.85;;;;;;;2.31;58.33;101781.97;4971052;28;20030;-87
2023/03/13 01:18:48;;;;;;;2.10;1.25;;;;;;;2.30;58.07;101778.56;4970944;28;20489;-85
2023/03/13 01:21:13;;;;;;;1.98;1.45;;;;;;;2.27;57.94;101775.16;4938953;28;20062;-85
2023/03/13 01:23:39;;;;;;;2.35;1.13;;;;;;;2.42;58.26;101794.75;4970797;28;20031;-85
2023/03/13 01:26:05;;;;;;;0.68;0.68;;;;;;;2.31;58.02;101784.50;4954759;28;20034;-85
2023/03/13 01:28:31;;;;;;;1.65;0.90;;;;;;;2.37;58.62;101792.22;4970436;28;20030;-86
2023/03/13 01:30:56;;;;;;;1.13;1.02;;;;;;;2.44;58.56;101783.69;4970592;28;20031;-86
2023/03/13 01:33:22;;;;;;;1.90;1.58;;;;;;;2.52;58.04;101778.63;4970787;28;20037;-85
2023/03/13 01:35:47;;;;;;;2.92;1.42;;;;;;;2.43;58.02;101774.31;4954547;28;20070;-87
2023/03/13 01:38:13;;;;;;;8.57;1.52;;;;;;;2.36;58.10;101767.53;4954861;28;20045;-86
2023/03/13 01:40:45;;;;;;;1.95;1.05;;;;;;;2.43;57.93;101786.25;4970841;28;20035;-86
2023/03/13 01:43:21;;;;;;;;;;;;;;;2.44;58.24;101799.03;4970824;28;20031;-86
2023/03/13 01:45:59;;;;;;;0.75;0.75;;;;;;;2.37;58.40;101793.91;4986838;28;19965;-86
2023/03/13 01:48:56;;;;;;;0.90;0.80;;;;;;;2.43;58.74;101812.63;4971123;28;20121;-86
2023/03/13 01:51:44;;;;;;;1.92;1.20;;;;;;;2.44;58.48;101804.13;4972238;28;20030;-85
2023/03/13 01:54:13;;;;;;;1.58;1.25;;;;;;;2.46;58.24;101812.66;4972013;28;20069;-86
2023/03/13 01:56:59;;;;;;;5.13;1.10;;;;;;;2.43;58.64;101807.53;4971525;28;20046;-85
2023/03/13 01:59:37;;;;;;;1.08;1.02;;;;;;;2.49;58.08;101802.44;4957094;28;20484;-86
2023/03/13 02:02:02;;;;;;;2.08;1.88;;;;;;;2.45;58.18;101785.41;4972370;28;20038;-85
2023/03/13 02:04:35;;;;;;;3.13;1.52;;;;;;;2.49;58.07;101794.78;4954564;28;20030;-86
2023/03/13 02:07:01;;;;;;;;;;;;;;;2.65;58.02;101817.81;4971186;28;20037;-85
2023/03/13 02:09:28;;;;;;;1.50;1.30;;;;;;;2.48;57.53;101800.75;4986757;28;19914;-85
2023/03/13 02:12:06;;;;;;;1.55;1.45;;;;;;;2.48;57.56;101810.97;4954053;28;20034;-86
2023/03/13 02:14:33;;;;;;;1.65;1.55;;;;;;;2.50;57.44;101811.81;4970389;28;20432;-86
2023/03/13 02:16:58;;;;;;;1.00;1.00;;;;;;;2.56;57.34;101824.63;4954167;28;20105;-88
2023/03/13 02:19:24;;;;;;;0.65;0.65;;;;;;;2.59;58.18;101819.50;4970686;28;20031;-86
2023/03/13 02:21:54;;;;;;;0.90;0.90;;;;;;;2.50;58.20;101814.38;4972429;28;20029;-86
2023/03/13 02:24:44;;;;;;;1.92;1.20;;;;;;;2.53;57.55;101822.03;4974057;28;20038;-86
2023/03/13 02:27:09;;;;;;;1.23;1.13;;;;;;;2.56;56.98;101827.19;4975223;28;20054;-85
2023/03/13 02:29:35;;;;;;;1.00;0.90;;;;;;;2.50;57.07;101842.47;4974138;28;20477;-85
2023/03/13 02:32:00;;;;;;;1.10;1.00;;;;;;;2.56;56.83;101845.06;4973839;28;20046;-85
2023/03/13 02:34:29;;;;;;;2.35;1.45;;;;;;;2.41;57.13;101852.66;4957701;28;20038;-86
2023/03/13 02:36:54;;;;;;;0.68;0.55;;;;;;;2.45;57.30;101862.03;4942000;28;20094;-85
2023/03/13 02:39:20;;;;;;;0.95;0.90;;;;;;;2.40;57.28;101871.38;4957440;28;20031;-85
2023/03/13 02:41:46;;;;;;;1.13;0.98;;;;;;;2.18;57.95;101836.38;4973887;28;20031;-86
2023/03/13 02:44:11;;;;;;;1.10;0.93;;;;;;;2.43;57.47;101879.03;4957792;28;20408;-86
2023/03/13 02:46:49;;;;;;;0.95;0.90;;;;;;;2.50;57.38;101883.34;4973691;28;20489;-85
2023/03/13 02:49:28;;;;;;;1.15;0.88;;;;;;;2.44;57.02;101888.41;4957817;28;20039;-85
2023/03/13 02:51:55;;;;;;;1.77;1.60;;;;;;;2.38;56.95;101890.97;4973355;28;20038;-86
2023/03/13 02:54:23;;;;;;;1.17;1.08;;;;;;;2.41;57.42;101901.19;4973128;28;20417;-85
2023/03/13 02:56:51;;;;;;;1.90;1.17;;;;;;;2.49;57.82;101922.50;4973537;28;20061;-87
2023/03/13 02:59:16;;;;;;;3.40;2.05;;;;;;;2.36;57.70;101925.84;4973603;28;20412;-86
2023/03/13 03:01:42;;;;;;;1.45;1.20;;;;;;;2.34;57.86;101945.41;4973381;28;20492;-86
2023/03/13 03:04:07;;;;;;;0.85;0.85;;;;;;;2.30;57.89;101951.34;4956994;28;20045;-86
2023/03/13 03:06:33;;;;;;;2.80;1.52;;;;;;;2.19;58.02;101955.53;4973577;28;20460;-87
2023/03/13 03:08:58;;;;;;;1.60;0.82;;;;;;;1.87;58.60;101920.44;4940964;28;20034;-85
2023/03/13 03:11:24;;;;;;;1.45;1.00;;;;;;;2.16;58.54;101960.59;4973288;28;20035;-86
2023/03/13 03:13:49;;;;;;;1.45;0.80;;;;;;;2.01;58.84;101946.91;4973043;28;20125;-86
2023/03/13 03:16:17;;;;;;;5.35;1.30;;;;;;;1.97;58.51;101949.44;4957068;28;20500;-85
2023/03/13 03:18:43;;;;;;;3.17;1.48;;;;;;;1.96;58.44;101946.00;4973145;28;20114;-86
2023/03/13 03:21:08;;;;;;;1.13;0.93;;;;;;;1.93;58.66;101963.84;4973056;28;20114;-85
2023/03/13 03:23:33;;;;;;;1.27;1.13;;;;;;;1.98;58.58;101958.78;4956710;28;20031;-85
2023/03/13 03:25:59;;;;;;;0.65;0.65;;;;;;;1.87;58.63;101943.41;4972925;28;20477;-86
2023/03/13 03:28:25;;;;;;;2.00;1.60;;;;;;;1.84;58.73;101948.44;4957052;28;20035;-86
2023/03/13 03:30:53;;;;;;;2.10;1.10;;;;;;;1.85;58.60;101962.06;4972828;28;20404;-86
2023/03/13 03:33:19;;;;;;;2.28;1.50;;;;;;;1.88;59.00;101972.31;4956343;28;20129;-85
2023/03/13 03:35:44;;;;;;;1.88;1.27;;;;;;;1.88;58.98;101974.88;4956841;28;20031;-85
2023/03/13 03:38:10;;;;;;;1.25;0.85;;;;;;;1.85;59.04;101987.59;4972364;28;20053;-85
2023/03/13 03:40:35;;;;;;;2.80;0.90;;;;;;;1.82;59.82;101970.56;4956684;28;20042;-86
2023/03/13 03:43:01;;;;;;;1.63;1.15;;;;;;;1.97;59.60;101974.94;4972734;28;20488;-86
2023/03/13 03:45:26;;;;;;;1.70;1.30;;;;;;;2.00;59.24;101986.03;4972692;28;20109;-86
2023/03/13 03:47:52;;;;;;;1.90;1.70;;;;;;;1.72;58.86;101938.16;4940191;28;20420;-85
2023/03/13 03:50:17;;;;;;;1.67;1.00;;;;;;;1.83;58.56;101961.22;4972598;28;20035;-85
2023/03/13 03:52:43;;;;;;;2.05;1.10;;;;;;;1.93;59.30;101984.25;4972243;28;20031;-85
2023/03/13 03:55:08;;;;;;;0.82;0.80;;;;;;;1.99;58.12;101991.97;4956408;28;20034;-86
2023/03/13 03:57:34;;;;;;;1.58;1.38;;;;;;;1.86;58.73;102002.91;4940179;28;20500;-85
2023/03/13 03:59:59;;;;;;;1.00;0.90;;;;;;;1.88;58.72;101993.59;4972181;28;20023;-85
2023/03/13 04:02:24;;;;;;;1.75;1.42;;;;;;;1.96;59.29;102014.03;4956302;28;20031;-87
2023/03/13 04:04:50;;;;;;;1.30;1.05;;;;;;;1.79;60.30;102006.25;4972337;28;20031;-85
2023/03/13 04:07:15;;;;;;;2.63;1.60;;;;;;;1.84;59.69;101999.50;4972287;28;20039;-85
2023/03/13 04:09:41;;;;;;;0.63;0.63;;;;;;;2.23;61.56;102031.28;4940043;28;20511;-85
2023/03/13 04:12:07;;;;;;;1.63;1.52;;;;;;;2.26;59.33;102031.31;4940080;28;20030;-86
2023/03/13 04:14:32;;;;;;;2.80;1.95;;;;;;;2.35;59.18;102028.81;4971897;28;20122;-86
2023/03/13 04:16:58;;;;;;;2.08;1.50;;;;;;;2.75;59.67;102034.19;4955898;28;20469;-86
2023/03/13 04:19:23;;;;;;;2.67;1.88;;;;;;;2.80;58.56;102022.31;4972115;28;20027;-86
2023/03/13 04:21:49;;;;;;;7.70;2.50;;;;;;;2.66;56.86;102017.13;4955562;28;20045;-86
2023/03/13 04:24:14;;;;;;;3.50;2.10;;;;;;;2.70;56.82;102030.78;4973176;28;20027;-86
2023/03/13 04:26:40;;;;;;;3.38;3.05;;;;;;;2.42;56.91;101989.72;4971572;28;20046;-86
2023/03/13 04:29:05;;;;;;;3.83;2.75;;;;;;;2.47;56.63;102021.28;4971678;28;20031;-85
2023/03/13 04:31:32;;;;;;;3.00;1.95;;;;;;;2.61;56.57;102052.00;4955434;28;20030;-85
2023/03/13 04:33:57;;;;;;;4.85;2.92;;;;;;;2.61;56.80;102051.16;4971844;28;20034;-86
2023/03/13 04:36:22;;;;;;;6.78;3.00;;;;;;;2.50;57.17;102028.94;4961121;28;20073;-83
2023/03/13 04:38:48;;;;;;;4.05;2.55;;;;;;;2.50;57.07;102028.94;4990900;28;20038;-85
2023/03/13 04:41:13;;;;;;;2.47;1.55;;;;;;;2.49;57.19;102011.06;4958539;28;20100;-87
2023/03/13 04:43:39;;;;;;;1.48;1.38;;;;;;;2.51;57.09;102030.66;4974643;28;20038;-85
2023/03/13 04:46:04;;;;;;;3.17;1.25;;;;;;;2.29;57.75;101996.47;4991041;28;20030;-87
2023/03/13 04:48:30;;;;;;;3.58;2.70;;;;;;;2.33;57.93;102010.09;4991308;28;20489;-86
2023/03/13 04:50:55;;;;;;;1.65;1.25;;;;;;;2.37;58.78;102011.00;4990552;28;20045;-85
2023/03/13 04:53:21;;;;;;;3.65;2.40;;;;;;;2.21;59.13;102008.31;4990500;28;20030;-85
2023/03/13 04:55:47;;;;;;;2.70;1.65;;;;;;;2.31;58.81;102024.56;4987797;28;20045;-85
2023/03/13 04:58:12;;;;;;;1.67;1.55;;;;;;;2.17;58.99;102008.28;4990401;28;20049;-85
2023/03/13 05:00:41;;;;;;;2.53;1.42;;;;;;;2.22;58.70;102011.72;4973960;28;20034;-83
2023/03/13 05:03:06;;;;;;;2.95;1.92;;;;;;;2.30;59.19;102026.25;4990080;28;20085;-84
2023/03/13 05:05:35;;;;;;;2.08;1.92;;;;;;;2.38;58.73;102033.13;4990080;28;20042;-83
2023/03/13 05:08:01;;;;;;;1.50;1.40;;;;;;;2.13;58.68;101996.31;4988279;28;20510;-82
2023/03/13 05:10:26;;;;;;;1.85;1.60;;;;;;;2.42;58.30;102030.59;4990683;28;20026;-81
2023/03/13 05:12:52;;;;;;;3.88;2.40;;;;;;;2.52;58.40;102034.06;4957836;28;20026;-86
2023/03/13 05:15:18;;;;;;;2.20;1.38;;;;;;;2.51;58.11;102030.66;4990056;28;20046;-86
2023/03/13 05:17:44;;;;;;;3.45;2.70;;;;;;;2.33;58.21;102014.34;4979093;28;20038;-87
2023/03/13 05:20:10;;;;;;;3.53;3.22;;;;;;;2.46;58.52;102032.34;4974148;28;20546;-93
2023/03/13 05:22:36;;;;;;;2.70;2.47;;;;;;;2.52;58.58;102031.50;4977953;28;20037;-92
2023/03/13 05:25:02;;;;;;;2.88;2.28;;;;;;;2.62;59.00;102032.44;4990576;28;20030;-89
2023/03/13 05:27:28;;;;;;;10.75;2.45;;;;;;;2.63;59.10;102024.75;4979711;28;20428;-89
2023/03/13 05:29:53;;;;;;;2.30;1.92;;;;;;;2.64;59.52;102030.72;4990347;28;20022;-83
2023/03/13 05:32:19;;;;;;;2.10;1.90;;;;;;;2.68;59.06;102024.81;5006688;28;20038;-94
2023/03/13 05:34:45;;;;;;;3.15;2.25;;;;;;;2.71;58.83;102032.47;5005928;28;20034;-82
2023/03/13 05:37:10;;;;;;;2.88;2.33;;;;;;;2.71;57.90;102024.81;4974107;28;20053;-83
2023/03/13 05:39:36;;;;;;;4.57;2.15;;;;;;;2.77;57.92;102014.66;4972321;28;20031;-83
2023/03/13 05:42:01;;;;;;;3.75;1.92;;;;;;;2.58;57.91;101991.53;4973846;28;20038;-81
2023/03/13 05:44:27;;;;;;;4.50;3.78;;;;;;;2.77;58.09;102027.41;4992264;28;20034;-91
2023/03/13 05:46:52;;;;;;;14.88;8.20;;;;;;;2.74;58.29;102025.69;4957715;28;20030;-89
2023/03/13 05:49:18;;;;;;;5.13;4.63;;;;;;;2.79;58.55;102034.25;4946907;28;20515;-89
2023/03/13 05:51:43;;;;;;;2.08;1.42;;;;;;;2.79;57.50;102021.47;4987261;28;20053;-89
2023/03/13 05:54:09;;;;;;;3.05;2.50;;;;;;;2.68;58.78;102024.81;4961984;28;20026;-88
2023/03/13 05:56:34;;;;;;;2.15;1.83;;;;;;;2.89;57.66;102042.81;4989936;28;20105;-85
2023/03/13 05:59:00;;;;;;;2.25;1.77;;;;;;;2.88;58.64;102031.75;4992657;28;20046;-84
2023/03/13 06:01:25;;;;;;;2.53;2.22;;;;;;;3.00;58.70;102036.06;4977006;28;20484;-81
2023/03/13 06:03:51;;;;;;;3.25;2.25;;;;;;;3.06;57.65;102035.22;4993842;28;20049;-91
2023/03/13 06:06:16;;;;;;;2.67;1.90;;;;;;;3.16;57.08;102027.59;4995330;28;20018;-86
2023/03/13 06:08:42;;;;;;;2.67;2.45;;;;;;;3.24;57.01;102019.09;4995020;28;20807;-89
2023/03/13 06:11:07;;;;;;;3.90;2.25;;;;;;;3.43;57.20;102041.31;4994360;28;20038;-80
2023/03/13 06:13:32;;;;;;;2.53;1.92;;;;;;;3.49;56.60;102046.47;4992262;28;20480;-80
2023/03/13 06:15:58;;;;;;;1.58;1.38;;;;;;;3.54;56.18;102044.78;5008899;28;20085;-86
2023/03/13 06:18:24;;;;;;;1.92;1.73;;;;;;;3.54;56.98;102034.56;5009627;28;20026;-92
2023/03/13 06:20:52;;;;;;;2.63;1.58;;;;;;;3.68;56.94;102040.53;4993151;28;20169;-91
2023/03/13 06:23:18;;;;;;;4.85;2.47;;;;;;;3.79;55.27;102039.72;4992097;28;20026;-90
2023/03/13 06:25:46;;;;;;;3.47;3.17;;;;;;;3.74;54.80;102006.44;5007985;28;20046;-86
2023/03/13 06:28:12;;;;;;;2.50;2.17;;;;;;;3.91;54.57;102014.97;4979550;28;20019;-91
2023/03/13 06:30:37;;;;;;;1.92;1.30;;;;;;;4.01;54.17;102009.00;4992309;28;20042;-86
2023/03/13 06:33:03;;;;;;;3.03;2.42;;;;;;;4.21;54.11;102024.38;4980529;28;20488;-92
2023/03/13 06:35:28;;;;;;;3.63;2.45;;;;;;;4.42;54.08;102027.75;4981223;28;20134;-92
2023/03/13 06:37:54;;;;;;;3.40;1.90;;;;;;;4.51;53.47;102030.31;4993868;28;20088;-93
2023/03/13 06:40:19;;;;;;;5.32;2.55;;;;;;;4.69;53.41;102037.97;4977339;28;20129;-90
2023/03/13 06:42:45;;;;;;;5.85;4.68;;;;;;;4.61;52.65;102034.56;4992191;28;20507;-86
2023/03/13 06:45:10;;;;;;;3.45;2.60;;;;;;;4.65;52.64;102036.28;5012031;28;20122;-92
2023/03/13 06:47:36;;;;;;;3.25;2.33;;;;;;;4.76;52.05;102047.38;5000135;28;20030;-90
2023/03/13 06:50:01;;;;;;;2.88;2.47;;;;;;;4.84;50.82;102053.34;4971423;28;20051;-93
2023/03/13 06:52:27;;;;;;;4.15;3.40;;;;;;;4.97;51.32;102061.00;4991574;28;20030;-89
2023/03/13 06:54:52;;;;;;;3.13;2.83;;;;;;;4.98;50.95;102071.25;4992595;28;20042;-84
2023/03/13 06:57:18;;;;;;;4.65;2.47;;;;;;;4.98;51.80;102055.00;4975760;28;20042;-94
2023/03/13 06:59:44;;;;;;;3.42;3.13;;;;;;;5.18;51.62;102066.03;4993039;28;20120;-95
2023/03/13 07:02:10;;;;;;;3.30;3.00;;;;;;;5.31;50.52;102062.59;4994137;28;20026;-93
2023/03/13 07:04:35;;;;;;;4.85;2.88;;;;;;;5.31;49.61;102064.28;4992593;28;20477;-93
2023/03/13 07:07:01;;;;;;;3.05;2.42;;;;;;;5.86;58.17;102080.25;4965104;28;20125;-91
2023/03/13 07:09:26;;;;;;;4.63;3.35;;;;;;;6.25;49.22;102078.31;4992942;28;20035;-91
2023/03/13 07:11:52;;;;;;;6.78;4.15;;;;;;;6.23;49.79;102080.03;4994945;28;20037;-94
2023/03/13 07:14:17;;;;;;;4.25;3.17;;;;;;;6.20;49.32;102090.34;4982667;28;20033;-86
2023/03/13 07:16:44;;;;;;;3.28;2.90;;;;;;;6.19;51.22;102081.75;4992118;28;20034;-88
2023/03/13 07:19:09;;;;;;;8.90;4.40;;;;;;;6.07;49.63;102063.03;4993383;28;20049;-84
2023/03/13 07:21:35;;;;;;;4.68;2.75;;;;;;;6.32;49.22;102100.53;4992879;28;20038;-93
2023/03/13 07:24:00;;;;;;;2.75;1.95;;;;;;;6.29;49.66;102100.53;4991962;28;20030;-92
2023/03/13 07:26:26;;;;;;;2.80;2.25;;;;;;;6.29;49.81;102101.41;5007445;28;20026;-94
2023/03/13 07:28:51;;;;;;;5.55;2.83;;;;;;;6.17;50.67;102092.91;5008723;28;20037;-93
2023/03/13 07:31:19;;;;;;;2.97;2.00;;;;;;;6.25;51.74;102096.28;5004246;28;20423;-93
2023/03/13 07:33:44;;;;;;;6.97;1.90;;;;;;;6.50;51.15;102094.38;4992080;28;20034;-95
2023/03/13 07:36:10;;;;;;;4.30;2.75;;;;;;;6.51;50.61;102086.66;5007629;28;20480;-86
2023/03/13 07:38:36;;;;;;;4.60;2.53;;;;;;;6.60;50.36;102086.56;4991245;28;20038;-86
2023/03/13 07:41:01;;;;;;;3.50;2.42;;;;;;;6.63;50.08;102088.25;4990697;28;20534;-85
2023/03/13 07:43:46;;;;;;;12.95;2.80;;;;;;;6.76;49.83;102081.28;5006486;28;20023;-82
2023/03/13 07:46:13;;;;;;;3.78;2.67;;;;;;;6.94;48.92;102087.97;5004922;28;20033;-82
2023/03/13 07:48:39;;;;;;;2.55;1.90;;;;;;;6.96;49.30;102074.19;5013000;28;20038;-83
2023/03/13 07:51:07;;;;;;;8.10;5.65;;;;;;;7.08;48.96;102074.09;4969654;28;20110;-94
2023/03/13 07:53:33;;;;;;;2.50;2.30;;;;;;;7.28;48.43;102096.16;4975131;28;20038;-95
2023/03/13 07:56:03;;;;;;;2.70;2.17;;;;;;;7.50;47.36;102097.59;4995952;28;20129;-92
2023/03/13 07:58:31;;;;;;;3.35;1.80;;;;;;;7.65;45.56;102073.34;4991163;28;20496;-95
2023/03/13 08:00:57;;;;;;;3.65;2.55;;;;;;;7.82;43.64;102083.44;4990172;28;20492;-84
2023/03/13 08:03:22;;;;;;;3.20;2.28;;;;;;;8.01;42.86;102092.59;5006449;28;20039;-86
2023/03/13 08:06:00;;;;;;;1.23;1.10;;;;;;;8.14;42.97;102088.94;4993024;28;20035;-95
2023/03/13 08:08:25;;;;;;;19.50;12.75;;;;;;;8.16;43.28;102071.75;5008964;28;20040;-94
2023/03/13 08:10:51;;;;;;;5.18;3.30;;;;;;;8.24;42.16;102082.78;4991649;28;20408;-94
2023/03/13 08:13:16;;;;;;;1.52;1.42;;;;;;;8.38;42.61;102082.59;5007847;28;20515;-87
2023/03/13 08:15:42;;;;;;;2.35;1.70;;;;;;;8.43;43.98;102095.41;5007086;28;20030;-91
2023/03/13 08:18:07;;;;;;;5.32;2.58;;;;;;;8.49;43.78;102085.84;5008377;28;20030;-92
2023/03/13 08:20:33;;;;;;;4.05;1.90;;;;;;;8.44;42.80;102033.47;4973795;28;20029;-83
2023/03/13 08:22:58;;;;;;;3.05;1.77;;;;;;;8.73;42.42;102074.22;5006486;28;20034;-87
2023/03/13 08:25:24;;;;;;;3.08;1.92;;;;;;;8.97;42.86;102075.53;5006571;28;21106;-90
2023/03/13 08:27:49;;;;;;;2.63;1.55;;;;;;;9.09;42.04;102074.41;4990763;28;20080;-91
2023/03/13 08:30:15;;;;;;;1.35;1.25;;;;;;;9.15;40.76;102058.81;4993186;28;20042;-85
2023/03/13 08:32:40;;;;;;;2.55;1.95;;;;;;;9.19;40.20;102063.03;4990219;28;20065;-86
2023/03/13 08:35:06;;;;;;;2.00;1.65;;;;;;;9.31;40.66;102064.50;4990535;28;20030;-92
2023/03/13 08:37:32;;;;;;;1.67;1.40;;;;;;;9.43;40.39;102065.09;4973337;28;20129;-84
2023/03/13 08:39:57;;;;;;;2.08;1.48;;;;;;;9.45;38.88;102058.19;5006600;28;20061;-95
2023/03/13 08:42:23;;;;;;;3.78;2.33;;;;;;;9.43;40.90;102054.75;4990609;28;20027;-95
2023/03/13 08:44:48;;;;;;;4.38;1.83;;;;;;;9.60;43.25;102056.13;4972626;28;20038;-87
2023/03/13 08:47:14;;;;;;;2.42;1.80;;;;;;;9.78;44.46;102058.31;5006051;28;20515;-95
2023/03/13 08:49:39;;;;;;;2.25;1.73;;;;;;;9.87;45.31;102059.84;4954603;28;20086;-88
2023/03/13 08:52:05;;;;;;;3.13;2.15;;;;;;;9.92;44.03;102048.50;4973033;28;20041;-86
2023/03/13 08:54:31;;;;;;;2.70;1.65;;;;;;;9.86;44.04;102035.72;4991106;28;20471;-94
2023/03/13 08:56:58;;;;;;;3.85;2.22;;;;;;;9.92;45.33;102053.66;4989226;28;20078;-93
2023/03/13 08:59:24;;;;;;;3.53;2.83;;;;;;;9.93;44.29;102042.47;4960235;28;20034;-94
2023/03/13 09:01:52;;;;;;;2.40;2.03;;;;;;;9.82;43.23;102036.66;4989860;28;20030;-94
2023/03/13 09:04:18;;;;;;;2.42;1.90;;;;;;;9.68;44.20;102023.22;4968489;28;20026;-93
2023/03/13 09:06:43;;;;;;;2.47;1.70;;;;;;;9.59;43.99;102020.84;5006977;28;20172;-87
2023/03/13 09:09:09;;;;;;;2.67;2.00;;;;;;;9.66;43.69;102035.34;4989880;28;20499;-96
2023/03/13 09:11:35;;;;;;;2.85;1.67;;;;;;;9.70;44.25;102029.19;5005581;28;20131;-84
2023/03/13 09:14:01;;;;;;;3.42;2.33;;;;;;;9.85;44.23;102028.88;5007071;28;20049;-91
2023/03/13 09:16:28;;;;;;;3.80;2.38;;;;;;;9.96;43.79;102023.44;4992819;28;20042;-95
2023/03/13 09:18:53;;;;;;;2.55;2.03;;;;;;;10.19;42.92;102020.28;4991611;28;20488;-94
2023/03/13 09:21:20;;;;;;;3.53;2.50;;;;;;;10.30;41.15;102020.88;4957162;28;20041;-91
2023/03/13 09:23:46;;;;;;;3.17;2.22;;;;;;;10.26;39.04;102014.09;4988908;28;20133;-92
2023/03/13 09:26:12;;;;;;;3.35;1.75;;;;;;;10.30;40.07;102015.72;4974575;28;20033;-82
2023/03/13 09:28:37;;;;;;;2.30;1.60;;;;;;;10.37;37.24;102001.72;4963238;28;20045;-93
2023/03/13 09:31:20;;;;;;;2.08;1.60;;;;;;;10.50;38.53;101991.91;4993417;28;20057;-90
2023/03/13 09:33:46;;;;;;;1.48;1.38;;;;;;;10.52;37.50;102001.34;4971548;28;20072;-89
2023/03/13 09:36:12;;;;;;;1.13;1.02;;;;;;;10.67;35.14;101999.22;4990141;28;20030;-83
2023/03/13 09:38:38;;;;;;;1.45;0.88;;;;;;;10.77;34.49;101996.31;5004795;28;20031;-84
2023/03/13 09:41:15;;;;;;;0.85;0.73;;;;;;;10.98;35.35;101997.47;4989047;28;20030;-87
2023/03/13 09:44:09;;;;;;;3.88;2.35;;;;;;;11.04;34.66;101999.88;4989641;28;20026;-85
2023/03/13 09:46:38;;;;;;;2.42;1.50;;;;;;;10.89;34.55;101974.41;4995114;28;20036;-84
2023/03/13 09:49:09;;;;;;;1.45;1.35;;;;;;;11.11;34.94;101985.88;4989902;28;20026;-86
2023/03/13 09:51:37;;;;;;;1.63;1.17;;;;;;;11.22;34.95;101972.59;4995100;28;20051;-90
2023/03/13 09:54:19;;;;;;;1.88;1.42;;;;;;;11.35;35.55;101971.31;4989282;28;20030;-95
2023/03/13 09:56:50;;;;;;;1.98;1.40;;;;;;;11.38;35.13;101960.00;5008918;28;20053;-92
2023/03/13 09:59:21;;;;;;;1.40;1.23;;;;;;;11.33;34.86;101956.72;4989751;28;20030;-93
2023/03/13 10:01:46;;;;;;;2.10;1.48;;;;;;;11.32;35.58;101963.66;5006666;28;20100;-95
2023/03/13 10:04:39;;;;;;;1.88;1.30;;;;;;;11.35;34.15;101967.88;5006265;28;20034;-92
2023/03/13 10:07:07;;;;;;;2.28;1.65;;;;;;;11.34;34.88;101971.38;4997236;28;20491;-86
2023/03/13 10:09:33;;;;;;;2.22;1.27;;;;;;;11.40;36.20;101964.22;4988912;28;20057;-89
2023/03/13 10:12:05;;;;;;;2.30;1.55;;;;;;;11.59;35.00;101966.25;4987664;28;20499;-83
2023/03/13 10:14:33;;;;;;;2.03;1.40;;;;;;;11.63;34.57;101960.94;4990878;28;20085;-84
2023/03/13 10:17:23;;;;;;;2.25;1.70;;;;;;;11.70;34.36;101958.97;4989649;28;20030;-84
2023/03/13 10:19:54;;;;;;;2.35;1.60;;;;;;;11.75;34.61;101947.56;4989467;28;20516;-83
2023/03/13 10:22:24;;;;;;;3.05;2.50;;;;;;;11.81;35.02;101953.50;4988520;28;20030;-83
2023/03/13 10:24:55;;;;;;;2.90;2.05;;;;;;;11.68;34.30;101940.03;4988238;28;20497;-83
2023/03/13 10:27:21;;;;;;;2.20;1.42;;;;;;;11.86;35.05;101943.81;4989919;28;20038;-91
2023/03/13 10:29:46;;;;;;;3.50;1.65;;;;;;;11.89;34.98;101939.34;4975591;28;20034;-91
2023/03/13 10:32:13;;;;;;;4.40;1.58;;;;;;;11.80;34.99;101946.59;5008141;28;20081;-95
2023/03/13 10:34:57;;;;;;;4.07;2.22;;;;;;;11.94;34.33;101949.59;5062852;23;20582;-91
2023/03/13 10:37:40;;;;;;;3.40;1.90;;;;;;;12.10;35.12;101934.38;4995727;28;20031;-94
2023/03/13 10:40:23;;;;;;;2.72;2.03;;;;;;;12.11;34.39;101921.34;4958008;28;20026;-90
2023/03/13 10:42:50;;;;;;;3.22;1.85;;;;;;;12.43;34.02;101940.13;4987266;28;20046;-95
2023/03/13 10:45:17;;;;;;;3.63;2.42;;;;;;;12.46;34.63;101922.66;4970069;28;20041;-92
2023/03/13 10:47:43;;;;;;;2.00;1.45;;;;;;;12.57;33.60;101922.28;4976352;28;20034;-84
2023/03/13 10:50:20;;;;;;;3.78;1.60;;;;;;;12.64;34.26;101922.00;4976122;28;20141;-88
2023/03/13 10:52:46;;;;;;;1.90;1.70;;;;;;;12.53;34.39;101892.16;4975254;28;20029;-88
2023/03/13 10:55:19;;;;;;;3.72;2.08;;;;;;;12.94;42.22;101903.56;4976836;28;20054;-96
2023/03/13 10:57:53;;;;;;;3.30;1.80;;;;;;;14.64;31.87;101921.59;4969116;28;20042;-84
2023/03/13 11:00:38;;;;;;;2.58;1.67;;;;;;;13.95;31.91;101889.09;5005517;28;20484;-87
2023/03/13 11:03:18;;;;;;;2.00;1.52;;;;;;;13.83;30.97;101913.88;4992208;28;20109;-87
2023/03/13 11:05:44;;;;;;;1.73;1.20;;;;;;;13.79;31.67;101907.13;4966312;28;20112;-90
2023/03/13 11:08:12;;;;;;;4.13;2.15;;;;;;;13.90;31.88;101911.88;4983332;28;20058;-85
2023/03/13 11:10:37;;;;;;;2.20;1.52;;;;;;;13.68;31.51;101893.72;4999752;28;21022;-85
2023/03/13 11:13:02;;;;;;;2.45;1.42;;;;;;;13.57;31.51;101906.28;4984541;28;20472;-89
2023/03/13 11:15:44;;;;;;;2.88;1.90;;;;;;;13.38;32.57;101891.47;5005469;28;20034;-94
2023/03/13 11:18:48;;;;;;;2.07;1.80;;;;;;;13.39;32.96;101885.38;4965645;28;20037;-91
2023/03/13 11:21:23;;;;;;;2.70;1.92;;;;;;;13.31;33.04;101896.97;4983849;28;20035;-83
2023/03/13 11:23:55;;;;;;;2.53;1.70;;;;;;;13.18;32.40;101881.84;4963715;28;20038;-84
2023/03/13 11:26:33;;;;;;;4.60;1.98;;;;;;;13.09;33.56;101865.78;4975848;28;20491;-82
2023/03/13 11:29:08;;;;;;;1.70;1.40;;;;;;;13.08;32.57;101879.69;5000035;28;20111;-84
2023/03/13 11:31:38;;;;;;;2.67;1.92;;;;;;;12.95;32.77;101868.91;5019197;28;20412;-87
2023/03/13 11:34:28;;;;;;;2.67;1.80;;;;;;;12.83;32.58;101838.22;4985172;28;20530;-85